sensor_id;sensor_type;location;lat;lon;timestamp;P1;durP1;ratioP1;P2;durP2;ratioP2
40871;SDS011;26591;43.264;26.940;2022-11-09T00:01:17;33.38;;;23.95;;
40871;SDS011;26591;43.264;26.940;2022-11-09T00:03:43;40.55;;;24.08;;
40871;SDS011;26591;43.264;26.940;2022-11-09T00:06:09;32.25;;;24.23;;
40871;SDS011;26591;43.264;26.940;2022-11-09T00:08:37;34.55;;;23.77;;
40871;SDS011;26591;43.264;26.940;2022-11-09T00:11:04;30.70;;;23.30;;
40871;SDS011;26591;43.264;26.940;2022-11-09T00:13:34;35.17;;;24.05;;
40871;SDS011;26591;43.264;26.940;2022-11-09T00:16:00;36.00;;;24.98;;
40871;SDS011;26591;43.264;26.940;2022-11-09T00:18:29;32.22;;;22.60;;
40871;SDS011;26591;43.264;26.940;2022-11-09T00:20:55;34.67;;;22.52;;
40871;SDS011;26591;43.264;26.940;2022-11-09T00:23:20;34.70;;;23.55;;
40871;SDS011;26591;43.264;26.940;2022-11-09T00:25:46;35.90;;;23.95;;
40871;SDS011;26591;43.264;26.940;2022-11-09T00:28:12;38.45;;;24.25;;
40871;SDS011;26591;43.264;26.940;2022-11-09T00:30:38;32.75;;;22.85;;
40871;SDS011;26591;43.264;26.940;2022-11-09T00:33:04;34.83;;;23.98;;
40871;SDS011;26591;43.264;26.940;2022-11-09T00:35:30;31.50;;;23.15;;
40871;SDS011;26591;43.264;26.940;2022-11-09T00:37:58;39.15;;;22.90;;
40871;SDS011;26591;43.264;26.940;2022-11-09T00:40:23;32.40;;;23.42;;
40871;SDS011;26591;43.264;26.940;2022-11-09T00:42:49;33.13;;;24.00;;
40871;SDS011;26591;43.264;26.940;2022-11-09T00:45:15;39.92;;;23.52;;
40871;SDS011;26591;43.264;26.940;2022-11-09T00:47:40;35.80;;;23.05;;
40871;SDS011;26591;43.264;26.940;2022-11-09T00:50:06;29.42;;;21.77;;
40871;SDS011;26591;43.264;26.940;2022-11-09T00:52:32;31.98;;;23.02;;
40871;SDS011;26591;43.264;26.940;2022-11-09T00:54:58;33.10;;;22.75;;
40871;SDS011;26591;43.264;26.940;2022-11-09T00:57:23;37.58;;;22.63;;
40871;SDS011;26591;43.264;26.940;2022-11-09T00:59:49;41.70;;;24.52;;
40871;SDS011;26591;43.264;26.940;2022-11-09T01:02:16;39.92;;;23.95;;
40871;SDS011;26591;43.264;26.940;2022-11-09T01:04:41;42.10;;;25.27;;
40871;SDS011;26591;43.264;26.940;2022-11-09T01:07:07;36.97;;;22.88;;
40871;SDS011;26591;43.264;26.940;2022-11-09T01:09:33;37.13;;;22.38;;
40871;SDS011;26591;43.264;26.940;2022-11-09T01:11:58;35.83;;;22.98;;
40871;SDS011;26591;43.264;26.940;2022-11-09T01:14:24;32.72;;;22.23;;
40871;SDS011;26591;43.264;26.940;2022-11-09T01:16:50;32.45;;;23.45;;
40871;SDS011;26591;43.264;26.940;2022-11-09T01:19:16;33.80;;;22.75;;
40871;SDS011;26591;43.264;26.940;2022-11-09T01:21:41;33.20;;;21.58;;
40871;SDS011;26591;43.264;26.940;2022-11-09T01:24:07;32.63;;;22.05;;
40871;SDS011;26591;43.264;26.940;2022-11-09T01:26:33;31.02;;;21.13;;
40871;SDS011;26591;43.264;26.940;2022-11-09T01:28:59;30.10;;;20.67;;
40871;SDS011;26591;43.264;26.940;2022-11-09T01:31:24;34.17;;;22.38;;
40871;SDS011;26591;43.264;26.940;2022-11-09T01:33:50;31.20;;;21.70;;
40871;SDS011;26591;43.264;26.940;2022-11-09T01:36:17;33.55;;;23.38;;
40871;SDS011;26591;43.264;26.940;2022-11-09T01:38:45;30.45;;;21.17;;
40871;SDS011;26591;43.264;26.940;2022-11-09T01:41:12;29.52;;;21.17;;
40871;SDS011;26591;43.264;26.940;2022-11-09T01:43:40;32.67;;;21.10;;
40871;SDS011;26591;43.264;26.940;2022-11-09T01:53:52;32.05;;;20.52;;
40871;SDS011;26591;43.264;26.940;2022-11-09T01:56:22;31.77;;;22.15;;
40871;SDS011;26591;43.264;26.940;2022-11-09T01:58:53;33.35;;;22.55;;
40871;SDS011;26591;43.264;26.940;2022-11-09T02:01:24;34.35;;;21.00;;
40871;SDS011;26591;43.264;26.940;2022-11-09T02:03:54;31.75;;;21.88;;
40871;SDS011;26591;43.264;26.940;2022-11-09T02:06:24;31.17;;;20.88;;
40871;SDS011;26591;43.264;26.940;2022-11-09T02:08:53;36.53;;;21.50;;
40871;SDS011;26591;43.264;26.940;2022-11-09T02:11:24;32.50;;;21.17;;
40871;SDS011;26591;43.264;26.940;2022-11-09T02:13:52;36.58;;;20.63;;
40871;SDS011;26591;43.264;26.940;2022-11-09T02:16:21;34.75;;;20.55;;
40871;SDS011;26591;43.264;26.940;2022-11-09T02:18:51;33.22;;;21.65;;
40871;SDS011;26591;43.264;26.940;2022-11-09T02:21:21;31.33;;;21.08;;
40871;SDS011;26591;43.264;26.940;2022-11-09T02:23:49;30.85;;;20.15;;
40871;SDS011;26591;43.264;26.940;2022-11-09T02:26:17;32.97;;;19.55;;
40871;SDS011;26591;43.264;26.940;2022-11-09T02:28:49;32.50;;;19.92;;
40871;SDS011;26591;43.264;26.940;2022-11-09T02:31:18;31.60;;;21.02;;
40871;SDS011;26591;43.264;26.940;2022-11-09T02:33:52;36.80;;;21.25;;
40871;SDS011;26591;43.264;26.940;2022-11-09T02:36:24;35.05;;;23.50;;
40871;SDS011;26591;43.264;26.940;2022-11-09T02:38:50;47.30;;;28.63;;
40871;SDS011;26591;43.264;26.940;2022-11-09T02:41:17;38.47;;;27.15;;
40871;SDS011;26591;43.264;26.940;2022-11-09T02:43:44;45.28;;;29.40;;
40871;SDS011;26591;43.264;26.940;2022-11-09T02:46:10;47.38;;;29.25;;
40871;SDS011;26591;43.264;26.940;2022-11-09T02:48:35;46.80;;;30.55;;
40871;SDS011;26591;43.264;26.940;2022-11-09T02:51:01;57.42;;;30.65;;
40871;SDS011;26591;43.264;26.940;2022-11-09T02:53:26;47.70;;;30.42;;
40871;SDS011;26591;43.264;26.940;2022-11-09T02:55:52;36.15;;;25.23;;
40871;SDS011;26591;43.264;26.940;2022-11-09T02:58:17;38.45;;;23.83;;
40871;SDS011;26591;43.264;26.940;2022-11-09T03:00:43;41.30;;;21.73;;
40871;SDS011;26591;43.264;26.940;2022-11-09T03:03:08;30.67;;;22.80;;
40871;SDS011;26591;43.264;26.940;2022-11-09T03:05:34;37.30;;;22.58;;
40871;SDS011;26591;43.264;26.940;2022-11-09T03:07:59;39.30;;;21.08;;
40871;SDS011;26591;43.264;26.940;2022-11-09T03:10:26;46.38;;;22.95;;
40871;SDS011;26591;43.264;26.940;2022-11-09T03:12:54;40.28;;;22.08;;
40871;SDS011;26591;43.264;26.940;2022-11-09T03:15:20;37.33;;;21.75;;
40871;SDS011;26591;43.264;26.940;2022-11-09T03:17:48;45.72;;;23.15;;
40871;SDS011;26591;43.264;26.940;2022-11-09T03:20:13;37.92;;;21.50;;
40871;SDS011;26591;43.264;26.940;2022-11-09T03:22:39;30.35;;;19.98;;
40871;SDS011;26591;43.264;26.940;2022-11-09T03:25:05;32.78;;;20.73;;
40871;SDS011;26591;43.264;26.940;2022-11-09T03:27:31;33.10;;;21.38;;
40871;SDS011;26591;43.264;26.940;2022-11-09T03:29:56;34.67;;;21.10;;
40871;SDS011;26591;43.264;26.940;2022-11-09T03:32:22;36.83;;;20.95;;
40871;SDS011;26591;43.264;26.940;2022-11-09T03:34:47;34.05;;;20.33;;
40871;SDS011;26591;43.264;26.940;2022-11-09T03:37:15;37.35;;;21.38;;
40871;SDS011;26591;43.264;26.940;2022-11-09T03:39:41;32.45;;;21.38;;
40871;SDS011;26591;43.264;26.940;2022-11-09T03:42:07;32.50;;;20.77;;
40871;SDS011;26591;43.264;26.940;2022-11-09T03:44:33;32.55;;;19.95;;
40871;SDS011;26591;43.264;26.940;2022-11-09T03:46:59;32.30;;;21.02;;
40871;SDS011;26591;43.264;26.940;2022-11-09T03:49:24;36.83;;;21.90;;
40871;SDS011;26591;43.264;26.940;2022-11-09T03:51:50;40.25;;;22.45;;
40871;SDS011;26591;43.264;26.940;2022-11-09T03:54:16;32.92;;;20.90;;
40871;SDS011;26591;43.264;26.940;2022-11-09T03:56:41;35.25;;;20.15;;
40871;SDS011;26591;43.264;26.940;2022-11-09T03:59:07;31.95;;;20.95;;
40871;SDS011;26591;43.264;26.940;2022-11-09T04:01:32;40.50;;;21.48;;
40871;SDS011;26591;43.264;26.940;2022-11-09T04:03:58;34.65;;;21.20;;
40871;SDS011;26591;43.264;26.940;2022-11-09T04:06:24;32.75;;;19.80;;
40871;SDS011;26591;43.264;26.940;2022-11-09T04:08:49;32.80;;;20.95;;
40871;SDS011;26591;43.264;26.940;2022-11-09T04:11:15;39.63;;;19.63;;
40871;SDS011;26591;43.264;26.940;2022-11-09T04:13:41;29.20;;;20.42;;
40871;SDS011;26591;43.264;26.940;2022-11-09T04:16:06;34.83;;;21.40;;
40871;SDS011;26591;43.264;26.940;2022-11-09T04:18:32;33.95;;;20.65;;
40871;SDS011;26591;43.264;26.940;2022-11-09T04:20:57;45.08;;;22.67;;
40871;SDS011;26591;43.264;26.940;2022-11-09T04:23:23;31.38;;;20.92;;
40871;SDS011;26591;43.264;26.940;2022-11-09T04:25:49;33.20;;;20.92;;
40871;SDS011;26591;43.264;26.940;2022-11-09T04:28:14;37.33;;;22.52;;
40871;SDS011;26591;43.264;26.940;2022-11-09T04:30:40;43.20;;;23.90;;
40871;SDS011;26591;43.264;26.940;2022-11-09T04:33:07;40.72;;;24.58;;
40871;SDS011;26591;43.264;26.940;2022-11-09T04:35:34;51.85;;;26.58;;
40871;SDS011;26591;43.264;26.940;2022-11-09T04:38:01;45.83;;;27.02;;
40871;SDS011;26591;43.264;26.940;2022-11-09T04:40:30;42.13;;;25.90;;
40871;SDS011;26591;43.264;26.940;2022-11-09T04:42:58;43.13;;;27.13;;
40871;SDS011;26591;43.264;26.940;2022-11-09T04:45:25;42.40;;;25.25;;
40871;SDS011;26591;43.264;26.940;2022-11-09T04:47:55;40.38;;;26.25;;
40871;SDS011;26591;43.264;26.940;2022-11-09T04:50:30;40.70;;;25.27;;
40871;SDS011;26591;43.264;26.940;2022-11-09T04:53:10;42.42;;;25.00;;
40871;SDS011;26591;43.264;26.940;2022-11-09T04:55:38;43.40;;;24.98;;
40871;SDS011;26591;43.264;26.940;2022-11-09T04:58:04;47.67;;;25.60;;
40871;SDS011;26591;43.264;26.940;2022-11-09T05:00:31;41.05;;;25.40;;
40871;SDS011;26591;43.264;26.940;2022-11-09T05:03:03;44.28;;;25.98;;
40871;SDS011;26591;43.264;26.940;2022-11-09T05:05:29;57.38;;;26.80;;
40871;SDS011;26591;43.264;26.940;2022-11-09T05:07:57;50.83;;;27.02;;
40871;SDS011;26591;43.264;26.940;2022-11-09T05:10:23;70.03;;;41.53;;
40871;SDS011;26591;43.264;26.940;2022-11-09T05:12:48;117.68;;;75.70;;
40871;SDS011;26591;43.264;26.940;2022-11-09T05:15:14;46.67;;;30.25;;
40871;SDS011;26591;43.264;26.940;2022-11-09T05:17:39;66.03;;;31.38;;
40871;SDS011;26591;43.264;26.940;2022-11-09T05:20:05;62.78;;;32.05;;
40871;SDS011;26591;43.264;26.940;2022-11-09T05:22:31;49.67;;;29.88;;
40871;SDS011;26591;43.264;26.940;2022-11-09T05:25:15;59.35;;;27.55;;
40871;SDS011;26591;43.264;26.940;2022-11-09T05:27:44;61.40;;;26.75;;
40871;SDS011;26591;43.264;26.940;2022-11-09T05:30:11;47.80;;;25.83;;
40871;SDS011;26591;43.264;26.940;2022-11-09T05:32:38;51.85;;;25.38;;
40871;SDS011;26591;43.264;26.940;2022-11-09T05:35:05;52.45;;;24.05;;
40871;SDS011;26591;43.264;26.940;2022-11-09T05:37:31;55.00;;;26.30;;
40871;SDS011;26591;43.264;26.940;2022-11-09T05:39:56;55.75;;;24.85;;
40871;SDS011;26591;43.264;26.940;2022-11-09T05:42:25;41.55;;;22.95;;
40871;SDS011;26591;43.264;26.940;2022-11-09T05:44:50;51.53;;;24.25;;
40871;SDS011;26591;43.264;26.940;2022-11-09T05:47:22;46.90;;;23.73;;
40871;SDS011;26591;43.264;26.940;2022-11-09T05:49:47;57.83;;;24.83;;
40871;SDS011;26591;43.264;26.940;2022-11-09T05:52:13;62.35;;;24.48;;
40871;SDS011;26591;43.264;26.940;2022-11-09T05:54:39;42.75;;;23.27;;
40871;SDS011;26591;43.264;26.940;2022-11-09T05:57:11;49.67;;;24.15;;
40871;SDS011;26591;43.264;26.940;2022-11-09T05:59:36;45.13;;;23.83;;
40871;SDS011;26591;43.264;26.940;2022-11-09T06:02:02;42.58;;;20.63;;
40871;SDS011;26591;43.264;26.940;2022-11-09T06:04:27;42.30;;;20.58;;
40871;SDS011;26591;43.264;26.940;2022-11-09T06:06:53;56.22;;;22.30;;
40871;SDS011;26591;43.264;26.940;2022-11-09T06:09:19;43.20;;;21.25;;
40871;SDS011;26591;43.264;26.940;2022-11-09T06:11:44;41.20;;;20.90;;
40871;SDS011;26591;43.264;26.940;2022-11-09T06:14:10;39.22;;;20.52;;
40871;SDS011;26591;43.264;26.940;2022-11-09T06:16:35;46.53;;;19.83;;
40871;SDS011;26591;43.264;26.940;2022-11-09T06:19:01;38.63;;;19.35;;
40871;SDS011;26591;43.264;26.940;2022-11-09T06:21:26;56.22;;;19.77;;
40871;SDS011;26591;43.264;26.940;2022-11-09T06:23:52;44.97;;;18.63;;
40871;SDS011;26591;43.264;26.940;2022-11-09T06:26:17;42.35;;;17.63;;
40871;SDS011;26591;43.264;26.940;2022-11-09T06:28:43;32.15;;;17.00;;
40871;SDS011;26591;43.264;26.940;2022-11-09T06:31:10;31.33;;;18.27;;
40871;SDS011;26591;43.264;26.940;2022-11-09T06:33:37;33.03;;;16.55;;
40871;SDS011;26591;43.264;26.940;2022-11-09T06:36:03;28.33;;;17.30;;
40871;SDS011;26591;43.264;26.940;2022-11-09T06:38:29;30.80;;;17.85;;
40871;SDS011;26591;43.264;26.940;2022-11-09T06:40:56;36.47;;;17.38;;
40871;SDS011;26591;43.264;26.940;2022-11-09T06:43:23;37.88;;;18.40;;
40871;SDS011;26591;43.264;26.940;2022-11-09T06:45:49;30.33;;;16.13;;
40871;SDS011;26591;43.264;26.940;2022-11-09T06:48:15;32.47;;;16.50;;
40871;SDS011;26591;43.264;26.940;2022-11-09T06:50:40;34.70;;;17.55;;
40871;SDS011;26591;43.264;26.940;2022-11-09T06:53:07;36.33;;;17.67;;
40871;SDS011;26591;43.264;26.940;2022-11-09T06:55:35;30.85;;;16.23;;
40871;SDS011;26591;43.264;26.940;2022-11-09T06:58:09;37.38;;;17.92;;
40871;SDS011;26591;43.264;26.940;2022-11-09T07:00:38;28.35;;;18.42;;
40871;SDS011;26591;43.264;26.940;2022-11-09T07:03:04;32.70;;;18.75;;
40871;SDS011;26591;43.264;26.940;2022-11-09T07:05:30;41.00;;;19.50;;
40871;SDS011;26591;43.264;26.940;2022-11-09T07:07:55;34.97;;;20.17;;
40871;SDS011;26591;43.264;26.940;2022-11-09T07:10:21;36.47;;;18.42;;
40871;SDS011;26591;43.264;26.940;2022-11-09T07:12:47;34.20;;;16.55;;
40871;SDS011;26591;43.264;26.940;2022-11-09T07:15:13;25.67;;;15.35;;
40871;SDS011;26591;43.264;26.940;2022-11-09T07:17:38;32.45;;;15.93;;
40871;SDS011;26591;43.264;26.940;2022-11-09T07:20:08;31.50;;;17.00;;
40871;SDS011;26591;43.264;26.940;2022-11-09T07:22:34;31.13;;;17.08;;
40871;SDS011;26591;43.264;26.940;2022-11-09T07:25:05;32.92;;;15.77;;
40871;SDS011;26591;43.264;26.940;2022-11-09T07:27:31;31.45;;;15.18;;
40871;SDS011;26591;43.264;26.940;2022-11-09T07:29:57;25.55;;;15.27;;
40871;SDS011;26591;43.264;26.940;2022-11-09T07:32:23;25.92;;;14.32;;
40871;SDS011;26591;43.264;26.940;2022-11-09T07:34:48;35.78;;;15.55;;
40871;SDS011;26591;43.264;26.940;2022-11-09T07:37:14;27.80;;;16.98;;
40871;SDS011;26591;43.264;26.940;2022-11-09T07:39:39;26.67;;;16.17;;
40871;SDS011;26591;43.264;26.940;2022-11-09T07:42:05;22.33;;;15.55;;
40871;SDS011;26591;43.264;26.940;2022-11-09T07:44:30;29.48;;;15.35;;
40871;SDS011;26591;43.264;26.940;2022-11-09T07:46:56;24.73;;;15.63;;
40871;SDS011;26591;43.264;26.940;2022-11-09T07:49:21;28.88;;;14.77;;
40871;SDS011;26591;43.264;26.940;2022-11-09T07:51:49;29.23;;;14.75;;
40871;SDS011;26591;43.264;26.940;2022-11-09T07:54:15;32.97;;;13.40;;
40871;SDS011;26591;43.264;26.940;2022-11-09T07:56:43;31.40;;;15.13;;
40871;SDS011;26591;43.264;26.940;2022-11-09T07:59:08;27.83;;;14.15;;
40871;SDS011;26591;43.264;26.940;2022-11-09T08:01:34;35.45;;;16.20;;
40871;SDS011;26591;43.264;26.940;2022-11-09T08:04:00;29.00;;;14.25;;
40871;SDS011;26591;43.264;26.940;2022-11-09T08:06:26;35.10;;;15.88;;
40871;SDS011;26591;43.264;26.940;2022-11-09T08:08:55;31.50;;;15.90;;
40871;SDS011;26591;43.264;26.940;2022-11-09T08:11:21;30.50;;;14.05;;
40871;SDS011;26591;43.264;26.940;2022-11-09T08:13:47;35.10;;;15.93;;
40871;SDS011;26591;43.264;26.940;2022-11-09T08:16:13;27.95;;;15.60;;
40871;SDS011;26591;43.264;26.940;2022-11-09T08:18:39;25.77;;;14.30;;
40871;SDS011;26591;43.264;26.940;2022-11-09T08:21:04;27.52;;;14.50;;
40871;SDS011;26591;43.264;26.940;2022-11-09T08:23:30;25.33;;;14.40;;
40871;SDS011;26591;43.264;26.940;2022-11-09T08:25:56;26.60;;;14.57;;
40871;SDS011;26591;43.264;26.940;2022-11-09T08:28:26;24.08;;;14.63;;
40871;SDS011;26591;43.264;26.940;2022-11-09T08:30:55;23.05;;;14.68;;
40871;SDS011;26591;43.264;26.940;2022-11-09T08:33:23;22.88;;;14.80;;
40871;SDS011;26591;43.264;26.940;2022-11-09T08:35:50;23.77;;;13.32;;
40871;SDS011;26591;43.264;26.940;2022-11-09T08:38:15;29.98;;;13.52;;
40871;SDS011;26591;43.264;26.940;2022-11-09T08:40:41;24.80;;;13.07;;
40871;SDS011;26591;43.264;26.940;2022-11-09T08:43:07;20.73;;;13.15;;
40871;SDS011;26591;43.264;26.940;2022-11-09T08:45:34;23.33;;;12.85;;
40871;SDS011;26591;43.264;26.940;2022-11-09T08:48:01;31.33;;;13.38;;
40871;SDS011;26591;43.264;26.940;2022-11-09T08:50:27;22.92;;;13.82;;
40871;SDS011;26591;43.264;26.940;2022-11-09T08:52:54;22.42;;;13.52;;
40871;SDS011;26591;43.264;26.940;2022-11-09T08:55:20;26.33;;;13.38;;
40871;SDS011;26591;43.264;26.940;2022-11-09T08:57:46;24.10;;;13.88;;
40871;SDS011;26591;43.264;26.940;2022-11-09T09:00:12;21.33;;;13.07;;
40871;SDS011;26591;43.264;26.940;2022-11-09T09:02:39;30.17;;;13.93;;
40871;SDS011;26591;43.264;26.940;2022-11-09T09:05:05;26.55;;;13.95;;
40871;SDS011;26591;43.264;26.940;2022-11-09T09:07:31;18.95;;;12.93;;
40871;SDS011;26591;43.264;26.940;2022-11-09T09:09:56;30.25;;;20.63;;
40871;SDS011;26591;43.264;26.940;2022-11-09T09:12:22;27.35;;;15.75;;
40871;SDS011;26591;43.264;26.940;2022-11-09T09:14:48;37.33;;;14.75;;
40871;SDS011;26591;43.264;26.940;2022-11-09T09:17:14;23.05;;;13.75;;
40871;SDS011;26591;43.264;26.940;2022-11-09T09:19:42;22.13;;;14.35;;
40871;SDS011;26591;43.264;26.940;2022-11-09T09:22:07;24.88;;;14.75;;
40871;SDS011;26591;43.264;26.940;2022-11-09T09:24:33;24.65;;;14.38;;
40871;SDS011;26591;43.264;26.940;2022-11-09T09:26:59;27.55;;;13.90;;
40871;SDS011;26591;43.264;26.940;2022-11-09T09:29:24;20.15;;;13.18;;
40871;SDS011;26591;43.264;26.940;2022-11-09T09:31:50;31.02;;;15.52;;
40871;SDS011;26591;43.264;26.940;2022-11-09T09:34:15;22.92;;;14.00;;
40871;SDS011;26591;43.264;26.940;2022-11-09T09:36:41;22.15;;;13.23;;
40871;SDS011;26591;43.264;26.940;2022-11-09T09:39:07;25.42;;;13.13;;
40871;SDS011;26591;43.264;26.940;2022-11-09T09:44:28;31.27;;;14.70;;
40871;SDS011;26591;43.264;26.940;2022-11-09T09:49:26;22.98;;;12.45;;
40871;SDS011;26591;43.264;26.940;2022-11-09T09:52:00;21.83;;;13.63;;
40871;SDS011;26591;43.264;26.940;2022-11-09T09:54:29;28.25;;;13.60;;
40871;SDS011;26591;43.264;26.940;2022-11-09T09:56:58;25.65;;;14.35;;
40871;SDS011;26591;43.264;26.940;2022-11-09T10:01:53;23.40;;;13.60;;
40871;SDS011;26591;43.264;26.940;2022-11-09T10:04:22;22.30;;;12.30;;
40871;SDS011;26591;43.264;26.940;2022-11-09T10:13:05;20.27;;;14.48;;
40871;SDS011;26591;43.264;26.940;2022-11-09T10:26:52;26.77;;;14.75;;
40871;SDS011;26591;43.264;26.940;2022-11-09T10:31:52;23.33;;;14.07;;
40871;SDS011;26591;43.264;26.940;2022-11-09T10:34:34;25.17;;;15.75;;
40871;SDS011;26591;43.264;26.940;2022-11-09T10:37:39;24.10;;;14.35;;
40871;SDS011;26591;43.264;26.940;2022-11-09T10:43:13;25.52;;;15.35;;
40871;SDS011;26591;43.264;26.940;2022-11-09T10:45:40;22.58;;;13.70;;
40871;SDS011;26591;43.264;26.940;2022-11-09T10:48:07;25.52;;;13.60;;
40871;SDS011;26591;43.264;26.940;2022-11-09T10:55:35;16.88;;;13.15;;
40871;SDS011;26591;43.264;26.940;2022-11-09T11:00:55;19.60;;;12.32;;
40871;SDS011;26591;43.264;26.940;2022-11-09T11:03:22;18.50;;;13.18;;
40871;SDS011;26591;43.264;26.940;2022-11-09T11:06:00;19.20;;;12.23;;
40871;SDS011;26591;43.264;26.940;2022-11-09T11:08:30;19.02;;;12.32;;
40871;SDS011;26591;43.264;26.940;2022-11-09T11:11:05;19.35;;;12.30;;
40871;SDS011;26591;43.264;26.940;2022-11-09T11:13:37;20.20;;;12.45;;
40871;SDS011;26591;43.264;26.940;2022-11-09T11:16:12;17.63;;;12.90;;
40871;SDS011;26591;43.264;26.940;2022-11-09T11:18:56;18.35;;;12.57;;
40871;SDS011;26591;43.264;26.940;2022-11-09T11:21:23;18.92;;;12.88;;
40871;SDS011;26591;43.264;26.940;2022-11-09T11:26:39;24.85;;;14.18;;
40871;SDS011;26591;43.264;26.940;2022-11-09T11:32:28;17.63;;;11.75;;
40871;SDS011;26591;43.264;26.940;2022-11-09T11:34:53;18.77;;;11.60;;
40871;SDS011;26591;43.264;26.940;2022-11-09T11:42:58;16.42;;;10.80;;
40871;SDS011;26591;43.264;26.940;2022-11-09T11:57:47;17.85;;;12.20;;
40871;SDS011;26591;43.264;26.940;2022-11-09T12:00:01;20.85;;;12.13;;
40871;SDS011;26591;43.264;26.940;2022-11-09T12:05:21;19.58;;;12.70;;
40871;SDS011;26591;43.264;26.940;2022-11-09T12:08:27;24.00;;;13.40;;
40871;SDS011;26591;43.264;26.940;2022-11-09T12:13:59;15.68;;;11.73;;
40871;SDS011;26591;43.264;26.940;2022-11-09T12:16:32;22.77;;;12.60;;
40871;SDS011;26591;43.264;26.940;2022-11-09T12:25:01;18.65;;;12.45;;
40871;SDS011;26591;43.264;26.940;2022-11-09T12:33:57;15.23;;;11.32;;
40871;SDS011;26591;43.264;26.940;2022-11-09T12:36:21;21.33;;;12.13;;
40871;SDS011;26591;43.264;26.940;2022-11-09T12:39:25;16.50;;;11.43;;
40871;SDS011;26591;43.264;26.940;2022-11-09T12:41:50;18.55;;;12.95;;
40871;SDS011;26591;43.264;26.940;2022-11-09T12:45:04;24.05;;;13.15;;
40871;SDS011;26591;43.264;26.940;2022-11-09T12:47:25;23.08;;;12.95;;
40871;SDS011;26591;43.264;26.940;2022-11-09T12:49:54;23.00;;;13.00;;
40871;SDS011;26591;43.264;26.940;2022-11-09T12:52:20;20.08;;;12.50;;
40871;SDS011;26591;43.264;26.940;2022-11-09T12:54:51;16.15;;;11.45;;
40871;SDS011;26591;43.264;26.940;2022-11-09T12:57:26;17.55;;;12.40;;
40871;SDS011;26591;43.264;26.940;2022-11-09T12:59:57;20.38;;;12.38;;
40871;SDS011;26591;43.264;26.940;2022-11-09T13:02:51;19.45;;;13.10;;
40871;SDS011;26591;43.264;26.940;2022-11-09T13:08:02;18.38;;;11.43;;
40871;SDS011;26591;43.264;26.940;2022-11-09T13:10:33;15.52;;;11.57;;
40871;SDS011;26591;43.264;26.940;2022-11-09T13:15:35;18.50;;;12.13;;
40871;SDS011;26591;43.264;26.940;2022-11-09T13:23:03;14.55;;;11.00;;
40871;SDS011;26591;43.264;26.940;2022-11-09T13:25:48;17.50;;;11.45;;
40871;SDS011;26591;43.264;26.940;2022-11-09T13:30:51;18.90;;;10.45;;
40871;SDS011;26591;43.264;26.940;2022-11-09T13:38:21;26.90;;;11.63;;
40871;SDS011;26591;43.264;26.940;2022-11-09T13:45:57;25.10;;;10.88;;
40871;SDS011;26591;43.264;26.940;2022-11-09T13:48:38;13.85;;;9.93;;
40871;SDS011;26591;43.264;26.940;2022-11-09T13:53:50;21.60;;;10.98;;
40871;SDS011;26591;43.264;26.940;2022-11-09T13:56:21;18.58;;;11.18;;
40871;SDS011;26591;43.264;26.940;2022-11-09T13:58:47;20.92;;;11.43;;
40871;SDS011;26591;43.264;26.940;2022-11-09T14:04:00;22.00;;;10.15;;
40871;SDS011;26591;43.264;26.940;2022-11-09T14:06:29;19.98;;;11.55;;
40871;SDS011;26591;43.264;26.940;2022-11-09T14:14:04;25.75;;;13.10;;
40871;SDS011;26591;43.264;26.940;2022-11-09T14:19:37;17.05;;;11.02;;
40871;SDS011;26591;43.264;26.940;2022-11-09T14:22:18;19.33;;;9.77;;
40871;SDS011;26591;43.264;26.940;2022-11-09T14:24:44;17.85;;;10.18;;
40871;SDS011;26591;43.264;26.940;2022-11-09T14:29:54;27.05;;;10.10;;
40871;SDS011;26591;43.264;26.940;2022-11-09T14:37:51;21.08;;;9.40;;
40871;SDS011;26591;43.264;26.940;2022-11-09T14:40:20;23.83;;;10.10;;
40871;SDS011;26591;43.264;26.940;2022-11-09T14:42:47;22.85;;;11.63;;
40871;SDS011;26591;43.264;26.940;2022-11-09T14:45:16;21.10;;;10.80;;
40871;SDS011;26591;43.264;26.940;2022-11-09T14:47:46;17.98;;;11.10;;
40871;SDS011;26591;43.264;26.940;2022-11-09T14:50:18;17.13;;;9.95;;
40871;SDS011;26591;43.264;26.940;2022-11-09T14:52:53;20.42;;;10.95;;
40871;SDS011;26591;43.264;26.940;2022-11-09T14:55:20;21.58;;;12.02;;
40871;SDS011;26591;43.264;26.940;2022-11-09T14:57:54;20.80;;;11.90;;
40871;SDS011;26591;43.264;26.940;2022-11-09T15:00:24;34.85;;;13.73;;
40871;SDS011;26591;43.264;26.940;2022-11-09T15:02:52;22.65;;;11.55;;
40871;SDS011;26591;43.264;26.940;2022-11-09T15:05:28;22.95;;;11.20;;
40871;SDS011;26591;43.264;26.940;2022-11-09T15:07:54;22.67;;;11.30;;
40871;SDS011;26591;43.264;26.940;2022-11-09T15:10:20;22.17;;;10.40;;
40871;SDS011;26591;43.264;26.940;2022-11-09T15:12:48;26.08;;;11.55;;
40871;SDS011;26591;43.264;26.940;2022-11-09T15:15:18;18.80;;;10.20;;
40871;SDS011;26591;43.264;26.940;2022-11-09T15:17:46;21.48;;;10.65;;
40871;SDS011;26591;43.264;26.940;2022-11-09T15:25:29;19.73;;;11.70;;
40871;SDS011;26591;43.264;26.940;2022-11-09T15:28:03;23.38;;;12.65;;
40871;SDS011;26591;43.264;26.940;2022-11-09T15:30:35;25.25;;;12.32;;
40871;SDS011;26591;43.264;26.940;2022-11-09T15:33:16;29.92;;;15.23;;
40871;SDS011;26591;43.264;26.940;2022-11-09T15:35:53;20.40;;;12.80;;
40871;SDS011;26591;43.264;26.940;2022-11-09T15:38:40;29.17;;;19.15;;
40871;SDS011;26591;43.264;26.940;2022-11-09T15:41:18;31.70;;;15.18;;
40871;SDS011;26591;43.264;26.940;2022-11-09T15:43:44;25.23;;;13.27;;
40871;SDS011;26591;43.264;26.940;2022-11-09T15:46:11;21.58;;;14.98;;
40871;SDS011;26591;43.264;26.940;2022-11-09T15:48:44;68.15;;;41.28;;
40871;SDS011;26591;43.264;26.940;2022-11-09T15:51:10;59.50;;;41.03;;
40871;SDS011;26591;43.264;26.940;2022-11-09T15:53:36;23.15;;;15.95;;
40871;SDS011;26591;43.264;26.940;2022-11-09T15:56:02;36.35;;;23.75;;
40871;SDS011;26591;43.264;26.940;2022-11-09T15:58:27;31.42;;;21.02;;
40871;SDS011;26591;43.264;26.940;2022-11-09T16:00:53;23.67;;;14.18;;
40871;SDS011;26591;43.264;26.940;2022-11-09T16:03:18;22.00;;;13.18;;
40871;SDS011;26591;43.264;26.940;2022-11-09T16:05:44;25.48;;;12.90;;
40871;SDS011;26591;43.264;26.940;2022-11-09T16:08:10;22.98;;;14.52;;
40871;SDS011;26591;43.264;26.940;2022-11-09T16:10:35;20.83;;;13.73;;
40871;SDS011;26591;43.264;26.940;2022-11-09T16:13:07;16.90;;;11.27;;
40871;SDS011;26591;43.264;26.940;2022-11-09T16:18:00;23.08;;;10.88;;
40871;SDS011;26591;43.264;26.940;2022-11-09T16:20:26;23.38;;;11.15;;
40871;SDS011;26591;43.264;26.940;2022-11-09T16:22:52;33.42;;;14.32;;
40871;SDS011;26591;43.264;26.940;2022-11-09T16:25:20;24.88;;;15.15;;
40871;SDS011;26591;43.264;26.940;2022-11-09T16:27:46;31.48;;;14.75;;
40871;SDS011;26591;43.264;26.940;2022-11-09T16:30:12;24.90;;;12.40;;
40871;SDS011;26591;43.264;26.940;2022-11-09T16:32:37;17.80;;;11.93;;
40871;SDS011;26591;43.264;26.940;2022-11-09T16:35:03;23.40;;;11.35;;